sensor_id;sensor_type;location;lat;lon;timestamp;P1;durP1;ratioP1;P2;durP2;ratioP2
43150;SDS011;28755;51.478;5.702;2023-10-31T00:01:27;20.15;;;12.75;;
43150;SDS011;28755;51.478;5.702;2023-10-31T00:03:53;17.95;;;14.70;;
43150;SDS011;28755;51.478;5.702;2023-10-31T00:06:18;18.83;;;14.90;;
43150;SDS011;28755;51.478;5.702;2023-10-31T00:08:44;20.38;;;14.85;;
43150;SDS011;28755;51.478;5.702;2023-10-31T00:11:10;20.35;;;15.35;;
43150;SDS011;28755;51.478;5.702;2023-10-31T00:13:35;17.40;;;14.52;;
43150;SDS011;28755;51.478;5.702;2023-10-31T00:16:01;18.88;;;14.57;;
43150;SDS011;28755;51.478;5.702;2023-10-31T00:18:27;19.48;;;15.07;;
43150;SDS011;28755;51.478;5.702;2023-10-31T00:20:53;20.73;;;14.93;;
43150;SDS011;28755;51.478;5.702;2023-10-31T00:23:18;15.60;;;13.80;;
43150;SDS011;28755;51.478;5.702;2023-10-31T00:25:44;21.02;;;14.40;;
43150;SDS011;28755;51.478;5.702;2023-10-31T00:28:09;17.65;;;13.85;;
43150;SDS011;28755;51.478;5.702;2023-10-31T00:30:35;20.63;;;13.95;;
43150;SDS011;28755;51.478;5.702;2023-10-31T00:33:01;18.77;;;13.63;;
43150;SDS011;28755;51.478;5.702;2023-10-31T00:35:26;17.75;;;13.05;;
43150;SDS011;28755;51.478;5.702;2023-10-31T00:37:52;15.00;;;11.63;;
43150;SDS011;28755;51.478;5.702;2023-10-31T00:40:17;13.43;;;10.32;;
43150;SDS011;28755;51.478;5.702;2023-10-31T00:42:43;15.20;;;10.48;;
43150;SDS011;28755;51.478;5.702;2023-10-31T00:45:09;12.82;;;9.88;;
43150;SDS011;28755;51.478;5.702;2023-10-31T00:47:35;14.60;;;8.98;;
43150;SDS011;28755;51.478;5.702;2023-10-31T00:50:01;12.07;;;7.63;;
43150;SDS011;28755;51.478;5.702;2023-10-31T00:52:27;11.35;;;7.82;;
43150;SDS011;28755;51.478;5.702;2023-10-31T00:54:53;14.32;;;7.45;;
43150;SDS011;28755;51.478;5.702;2023-10-31T00:57:18;12.93;;;8.07;;
43150;SDS011;28755;51.478;5.702;2023-10-31T00:59:44;12.95;;;7.38;;
43150;SDS011;28755;51.478;5.702;2023-10-31T01:02:09;11.25;;;6.53;;
43150;SDS011;28755;51.478;5.702;2023-10-31T01:04:35;10.48;;;7.05;;
43150;SDS011;28755;51.478;5.702;2023-10-31T01:07:02;12.02;;;6.22;;
43150;SDS011;28755;51.478;5.702;2023-10-31T01:09:27;10.52;;;5.35;;
43150;SDS011;28755;51.478;5.702;2023-10-31T01:11:53;8.75;;;5.90;;
43150;SDS011;28755;51.478;5.702;2023-10-31T01:14:19;10.32;;;6.32;;
43150;SDS011;28755;51.478;5.702;2023-10-31T01:16:45;12.80;;;7.80;;
43150;SDS011;28755;51.478;5.702;2023-10-31T01:19:10;11.90;;;6.90;;
43150;SDS011;28755;51.478;5.702;2023-10-31T01:21:36;12.50;;;9.00;;
43150;SDS011;28755;51.478;5.702;2023-10-31T01:24:02;13.48;;;9.05;;
43150;SDS011;28755;51.478;5.702;2023-10-31T01:26:28;15.05;;;10.43;;
43150;SDS011;28755;51.478;5.702;2023-10-31T01:28:53;18.08;;;11.48;;
43150;SDS011;28755;51.478;5.702;2023-10-31T01:31:19;19.70;;;12.10;;
43150;SDS011;28755;51.478;5.702;2023-10-31T01:33:45;18.52;;;11.82;;
43150;SDS011;28755;51.478;5.702;2023-10-31T01:36:11;21.88;;;13.43;;
43150;SDS011;28755;51.478;5.702;2023-10-31T01:38:37;25.17;;;16.15;;
43150;SDS011;28755;51.478;5.702;2023-10-31T01:41:03;25.80;;;15.32;;
43150;SDS011;28755;51.478;5.702;2023-10-31T01:43:33;24.40;;;16.35;;
43150;SDS011;28755;51.478;5.702;2023-10-31T01:45:59;27.38;;;17.10;;
43150;SDS011;28755;51.478;5.702;2023-10-31T01:48:26;29.02;;;19.50;;
43150;SDS011;28755;51.478;5.702;2023-10-31T01:50:54;32.95;;;19.27;;
43150;SDS011;28755;51.478;5.702;2023-10-31T01:53:20;31.15;;;20.35;;
43150;SDS011;28755;51.478;5.702;2023-10-31T01:55:47;30.60;;;20.02;;
43150;SDS011;28755;51.478;5.702;2023-10-31T01:58:13;31.40;;;19.52;;
43150;SDS011;28755;51.478;5.702;2023-10-31T02:00:40;31.60;;;20.20;;
43150;SDS011;28755;51.478;5.702;2023-10-31T02:03:07;34.60;;;20.75;;
43150;SDS011;28755;51.478;5.702;2023-10-31T02:05:33;32.17;;;20.27;;
43150;SDS011;28755;51.478;5.702;2023-10-31T02:07:59;37.05;;;21.48;;
43150;SDS011;28755;51.478;5.702;2023-10-31T02:10:28;35.78;;;22.35;;
43150;SDS011;28755;51.478;5.702;2023-10-31T02:12:53;29.02;;;20.60;;
43150;SDS011;28755;51.478;5.702;2023-10-31T02:15:19;28.80;;;20.15;;
43150;SDS011;28755;51.478;5.702;2023-10-31T02:17:45;30.45;;;20.88;;
43150;SDS011;28755;51.478;5.702;2023-10-31T02:20:10;30.42;;;21.73;;
43150;SDS011;28755;51.478;5.702;2023-10-31T02:22:36;36.35;;;21.10;;
43150;SDS011;28755;51.478;5.702;2023-10-31T02:25:02;36.88;;;21.33;;
43150;SDS011;28755;51.478;5.702;2023-10-31T02:27:27;31.13;;;20.27;;
43150;SDS011;28755;51.478;5.702;2023-10-31T02:29:53;35.42;;;21.33;;
43150;SDS011;28755;51.478;5.702;2023-10-31T02:32:18;33.35;;;21.45;;
43150;SDS011;28755;51.478;5.702;2023-10-31T02:34:44;35.97;;;22.60;;
43150;SDS011;28755;51.478;5.702;2023-10-31T02:37:10;30.63;;;21.33;;
43150;SDS011;28755;51.478;5.702;2023-10-31T02:39:36;32.47;;;21.88;;
43150;SDS011;28755;51.478;5.702;2023-10-31T02:42:03;29.63;;;22.08;;
43150;SDS011;28755;51.478;5.702;2023-10-31T02:44:28;35.95;;;21.08;;
43150;SDS011;28755;51.478;5.702;2023-10-31T02:46:54;33.80;;;22.30;;
43150;SDS011;28755;51.478;5.702;2023-10-31T02:49:20;33.83;;;22.27;;
43150;SDS011;28755;51.478;5.702;2023-10-31T02:51:46;35.80;;;22.85;;
43150;SDS011;28755;51.478;5.702;2023-10-31T02:54:11;33.75;;;22.73;;
43150;SDS011;28755;51.478;5.702;2023-10-31T02:56:37;37.03;;;22.95;;
43150;SDS011;28755;51.478;5.702;2023-10-31T02:59:03;37.25;;;23.48;;
43150;SDS011;28755;51.478;5.702;2023-10-31T03:01:28;34.72;;;22.88;;
43150;SDS011;28755;51.478;5.702;2023-10-31T03:03:54;32.40;;;22.38;;
43150;SDS011;28755;51.478;5.702;2023-10-31T03:06:20;37.42;;;23.30;;
43150;SDS011;28755;51.478;5.702;2023-10-31T03:08:46;37.15;;;23.23;;
43150;SDS011;28755;51.478;5.702;2023-10-31T03:11:21;33.22;;;22.55;;
43150;SDS011;28755;51.478;5.702;2023-10-31T03:13:48;34.97;;;23.20;;
43150;SDS011;28755;51.478;5.702;2023-10-31T03:16:14;31.40;;;21.38;;
43150;SDS011;28755;51.478;5.702;2023-10-31T03:18:40;29.50;;;21.15;;
43150;SDS011;28755;51.478;5.702;2023-10-31T03:21:05;31.00;;;20.90;;
43150;SDS011;28755;51.478;5.702;2023-10-31T03:23:31;30.15;;;21.33;;
43150;SDS011;28755;51.478;5.702;2023-10-31T03:25:56;30.25;;;20.90;;
43150;SDS011;28755;51.478;5.702;2023-10-31T03:28:22;31.65;;;22.83;;
43150;SDS011;28755;51.478;5.702;2023-10-31T03:30:49;33.45;;;22.73;;
43150;SDS011;28755;51.478;5.702;2023-10-31T03:33:15;30.85;;;22.27;;
43150;SDS011;28755;51.478;5.702;2023-10-31T03:35:44;35.90;;;23.30;;
43150;SDS011;28755;51.478;5.702;2023-10-31T03:38:10;34.92;;;23.42;;
43150;SDS011;28755;51.478;5.702;2023-10-31T03:40:35;36.72;;;22.40;;
43150;SDS011;28755;51.478;5.702;2023-10-31T03:43:01;33.67;;;22.90;;
43150;SDS011;28755;51.478;5.702;2023-10-31T03:45:27;34.95;;;23.60;;
43150;SDS011;28755;51.478;5.702;2023-10-31T03:47:52;30.63;;;22.30;;
43150;SDS011;28755;51.478;5.702;2023-10-31T03:50:18;33.80;;;22.67;;
43150;SDS011;28755;51.478;5.702;2023-10-31T03:52:43;35.30;;;23.17;;
43150;SDS011;28755;51.478;5.702;2023-10-31T03:55:09;31.60;;;23.50;;
43150;SDS011;28755;51.478;5.702;2023-10-31T03:57:34;33.38;;;23.40;;
43150;SDS011;28755;51.478;5.702;2023-10-31T04:00:00;34.45;;;24.50;;
43150;SDS011;28755;51.478;5.702;2023-10-31T04:02:26;34.20;;;23.85;;
43150;SDS011;28755;51.478;5.702;2023-10-31T04:04:51;30.50;;;23.75;;
43150;SDS011;28755;51.478;5.702;2023-10-31T04:07:17;38.55;;;24.55;;
43150;SDS011;28755;51.478;5.702;2023-10-31T04:09:42;39.30;;;24.35;;
43150;SDS011;28755;51.478;5.702;2023-10-31T04:12:08;36.00;;;23.52;;
43150;SDS011;28755;51.478;5.702;2023-10-31T04:14:34;31.70;;;22.65;;
43150;SDS011;28755;51.478;5.702;2023-10-31T04:16:59;35.85;;;24.25;;
43150;SDS011;28755;51.478;5.702;2023-10-31T04:19:25;32.58;;;24.30;;
43150;SDS011;28755;51.478;5.702;2023-10-31T04:21:52;33.05;;;24.33;;
43150;SDS011;28755;51.478;5.702;2023-10-31T04:24:19;38.65;;;24.45;;
43150;SDS011;28755;51.478;5.702;2023-10-31T04:26:44;31.33;;;23.85;;
43150;SDS011;28755;51.478;5.702;2023-10-31T04:29:10;35.95;;;25.13;;
43150;SDS011;28755;51.478;5.702;2023-10-31T04:31:35;32.97;;;22.98;;
43150;SDS011;28755;51.478;5.702;2023-10-31T04:34:01;29.85;;;22.83;;
43150;SDS011;28755;51.478;5.702;2023-10-31T04:36:27;31.13;;;22.83;;
43150;SDS011;28755;51.478;5.702;2023-10-31T04:38:52;28.83;;;21.65;;
43150;SDS011;28755;51.478;5.702;2023-10-31T04:41:19;29.38;;;21.48;;
43150;SDS011;28755;51.478;5.702;2023-10-31T04:43:44;29.52;;;21.40;;
43150;SDS011;28755;51.478;5.702;2023-10-31T04:46:10;26.40;;;20.45;;
43150;SDS011;28755;51.478;5.702;2023-10-31T04:48:36;25.20;;;19.48;;
43150;SDS011;28755;51.478;5.702;2023-10-31T04:51:02;25.30;;;20.30;;
43150;SDS011;28755;51.478;5.702;2023-10-31T04:53:28;26.95;;;19.35;;
43150;SDS011;28755;51.478;5.702;2023-10-31T04:55:53;23.63;;;18.23;;
43150;SDS011;28755;51.478;5.702;2023-10-31T04:58:19;22.80;;;18.33;;
43150;SDS011;28755;51.478;5.702;2023-10-31T05:00:45;27.42;;;18.52;;
43150;SDS011;28755;51.478;5.702;2023-10-31T05:03:11;22.27;;;17.58;;
43150;SDS011;28755;51.478;5.702;2023-10-31T05:05:37;22.75;;;19.02;;
43150;SDS011;28755;51.478;5.702;2023-10-31T05:08:02;24.80;;;19.33;;
43150;SDS011;28755;51.478;5.702;2023-10-31T05:10:28;26.95;;;20.65;;
43150;SDS011;28755;51.478;5.702;2023-10-31T05:12:54;25.00;;;20.13;;
43150;SDS011;28755;51.478;5.702;2023-10-31T05:15:20;30.35;;;20.98;;
43150;SDS011;28755;51.478;5.702;2023-10-31T05:17:45;25.30;;;20.15;;
43150;SDS011;28755;51.478;5.702;2023-10-31T05:20:11;24.15;;;20.30;;
43150;SDS011;28755;51.478;5.702;2023-10-31T05:22:37;19.85;;;15.35;;
43150;SDS011;28755;51.478;5.702;2023-10-31T05:25:02;19.30;;;15.30;;
43150;SDS011;28755;51.478;5.702;2023-10-31T05:27:30;18.35;;;13.73;;
43150;SDS011;28755;51.478;5.702;2023-10-31T05:29:55;18.92;;;13.48;;
43150;SDS011;28755;51.478;5.702;2023-10-31T05:32:21;18.10;;;12.60;;
43150;SDS011;28755;51.478;5.702;2023-10-31T05:34:47;18.98;;;13.70;;
43150;SDS011;28755;51.478;5.702;2023-10-31T05:37:12;20.77;;;16.70;;
43150;SDS011;28755;51.478;5.702;2023-10-31T05:39:38;26.50;;;20.67;;
43150;SDS011;28755;51.478;5.702;2023-10-31T05:42:04;26.90;;;21.85;;
43150;SDS011;28755;51.478;5.702;2023-10-31T05:44:29;26.40;;;22.20;;
43150;SDS011;28755;51.478;5.702;2023-10-31T05:46:55;30.85;;;22.73;;
43150;SDS011;28755;51.478;5.702;2023-10-31T05:49:20;31.52;;;23.23;;
43150;SDS011;28755;51.478;5.702;2023-10-31T05:51:50;30.40;;;23.77;;
43150;SDS011;28755;51.478;5.702;2023-10-31T05:56:42;29.15;;;23.38;;
43150;SDS011;28755;51.478;5.702;2023-10-31T05:59:08;29.90;;;23.70;;
43150;SDS011;28755;51.478;5.702;2023-10-31T06:01:33;29.88;;;24.67;;
43150;SDS011;28755;51.478;5.702;2023-10-31T06:04:01;32.25;;;24.20;;
43150;SDS011;28755;51.478;5.702;2023-10-31T06:06:27;29.45;;;24.30;;
43150;SDS011;28755;51.478;5.702;2023-10-31T06:08:52;26.92;;;22.40;;
43150;SDS011;28755;51.478;5.702;2023-10-31T06:11:18;30.30;;;23.48;;
43150;SDS011;28755;51.478;5.702;2023-10-31T06:13:43;29.30;;;22.65;;
43150;SDS011;28755;51.478;5.702;2023-10-31T06:16:09;26.92;;;22.13;;
43150;SDS011;28755;51.478;5.702;2023-10-31T06:18:35;28.92;;;22.23;;
43150;SDS011;28755;51.478;5.702;2023-10-31T06:21:03;28.83;;;22.35;;
43150;SDS011;28755;51.478;5.702;2023-10-31T06:23:29;27.83;;;20.75;;
43150;SDS011;28755;51.478;5.702;2023-10-31T06:25:54;25.98;;;21.02;;
43150;SDS011;28755;51.478;5.702;2023-10-31T06:28:20;29.25;;;20.73;;
43150;SDS011;28755;51.478;5.702;2023-10-31T06:30:46;25.42;;;20.65;;
43150;SDS011;28755;51.478;5.702;2023-10-31T06:33:11;23.27;;;18.60;;
43150;SDS011;28755;51.478;5.702;2023-10-31T06:35:37;25.20;;;19.73;;
43150;SDS011;28755;51.478;5.702;2023-10-31T06:38:02;23.67;;;18.40;;
43150;SDS011;28755;51.478;5.702;2023-10-31T06:40:28;22.77;;;19.33;;
43150;SDS011;28755;51.478;5.702;2023-10-31T06:42:54;23.33;;;19.00;;
43150;SDS011;28755;51.478;5.702;2023-10-31T06:45:19;26.50;;;19.15;;
43150;SDS011;28755;51.478;5.702;2023-10-31T06:47:45;24.70;;;19.25;;
43150;SDS011;28755;51.478;5.702;2023-10-31T06:50:10;25.02;;;19.83;;
43150;SDS011;28755;51.478;5.702;2023-10-31T06:52:36;27.25;;;20.63;;
43150;SDS011;28755;51.478;5.702;2023-10-31T06:55:02;25.35;;;19.60;;
43150;SDS011;28755;51.478;5.702;2023-10-31T06:57:27;23.60;;;20.02;;
43150;SDS011;28755;51.478;5.702;2023-10-31T06:59:53;26.42;;;21.50;;
43150;SDS011;28755;51.478;5.702;2023-10-31T07:02:19;27.88;;;21.70;;
43150;SDS011;28755;51.478;5.702;2023-10-31T07:04:44;27.95;;;21.73;;
43150;SDS011;28755;51.478;5.702;2023-10-31T07:07:10;27.67;;;23.08;;
43150;SDS011;28755;51.478;5.702;2023-10-31T07:09:35;26.00;;;22.38;;
43150;SDS011;28755;51.478;5.702;2023-10-31T07:12:01;30.10;;;22.83;;
43150;SDS011;28755;51.478;5.702;2023-10-31T07:14:27;27.52;;;21.65;;
43150;SDS011;28755;51.478;5.702;2023-10-31T07:16:52;27.25;;;21.10;;
43150;SDS011;28755;51.478;5.702;2023-10-31T07:19:18;24.42;;;20.80;;
43150;SDS011;28755;51.478;5.702;2023-10-31T07:21:44;24.35;;;20.38;;
43150;SDS011;28755;51.478;5.702;2023-10-31T07:24:09;26.27;;;21.08;;
43150;SDS011;28755;51.478;5.702;2023-10-31T07:26:35;22.63;;;19.70;;
43150;SDS011;28755;51.478;5.702;2023-10-31T07:29:01;22.30;;;18.40;;
43150;SDS011;28755;51.478;5.702;2023-10-31T07:31:26;20.85;;;16.88;;
43150;SDS011;28755;51.478;5.702;2023-10-31T07:33:52;21.95;;;17.67;;
43150;SDS011;28755;51.478;5.702;2023-10-31T07:36:18;23.80;;;18.67;;
43150;SDS011;28755;51.478;5.702;2023-10-31T07:38:43;20.38;;;16.70;;
43150;SDS011;28755;51.478;5.702;2023-10-31T07:41:09;17.52;;;13.98;;
43150;SDS011;28755;51.478;5.702;2023-10-31T07:43:34;17.52;;;14.88;;
43150;SDS011;28755;51.478;5.702;2023-10-31T07:46:00;23.42;;;13.68;;
43150;SDS011;28755;51.478;5.702;2023-10-31T07:48:25;14.00;;;12.50;;
43150;SDS011;28755;51.478;5.702;2023-10-31T07:50:51;14.27;;;12.50;;
43150;SDS011;28755;51.478;5.702;2023-10-31T07:53:16;14.10;;;12.13;;
43150;SDS011;28755;51.478;5.702;2023-10-31T07:55:42;15.68;;;12.45;;
43150;SDS011;28755;51.478;5.702;2023-10-31T07:58:08;15.85;;;12.73;;
43150;SDS011;28755;51.478;5.702;2023-10-31T08:00:34;15.65;;;13.63;;
43150;SDS011;28755;51.478;5.702;2023-10-31T08:03:01;14.80;;;11.90;;
43150;SDS011;28755;51.478;5.702;2023-10-31T08:05:27;18.58;;;12.70;;
43150;SDS011;28755;51.478;5.702;2023-10-31T08:07:52;17.23;;;13.35;;
43150;SDS011;28755;51.478;5.702;2023-10-31T08:10:18;16.52;;;12.23;;
43150;SDS011;28755;51.478;5.702;2023-10-31T08:12:43;15.75;;;12.55;;
43150;SDS011;28755;51.478;5.702;2023-10-31T08:15:09;15.50;;;13.85;;
43150;SDS011;28755;51.478;5.702;2023-10-31T08:17:35;17.83;;;14.70;;
43150;SDS011;28755;51.478;5.702;2023-10-31T08:20:01;18.23;;;14.55;;
43150;SDS011;28755;51.478;5.702;2023-10-31T08:22:28;15.80;;;14.10;;
43150;SDS011;28755;51.478;5.702;2023-10-31T08:24:54;21.48;;;15.30;;
43150;SDS011;28755;51.478;5.702;2023-10-31T08:27:20;19.23;;;16.48;;
43150;SDS011;28755;51.478;5.702;2023-10-31T08:29:45;23.20;;;17.30;;
43150;SDS011;28755;51.478;5.702;2023-10-31T08:32:11;21.05;;;17.45;;
43150;SDS011;28755;51.478;5.702;2023-10-31T08:34:36;22.35;;;17.10;;
43150;SDS011;28755;51.478;5.702;2023-10-31T08:37:02;28.80;;;18.92;;
43150;SDS011;28755;51.478;5.702;2023-10-31T08:39:28;24.85;;;18.15;;
43150;SDS011;28755;51.478;5.702;2023-10-31T08:41:54;23.25;;;18.50;;
43150;SDS011;28755;51.478;5.702;2023-10-31T08:44:21;22.83;;;17.65;;
43150;SDS011;28755;51.478;5.702;2023-10-31T08:46:47;25.17;;;18.40;;
43150;SDS011;28755;51.478;5.702;2023-10-31T08:49:13;22.98;;;17.85;;
43150;SDS011;28755;51.478;5.702;2023-10-31T08:51:39;25.35;;;17.88;;
43150;SDS011;28755;51.478;5.702;2023-10-31T08:54:05;22.48;;;17.30;;
43150;SDS011;28755;51.478;5.702;2023-10-31T08:56:31;25.13;;;17.38;;
43150;SDS011;28755;51.478;5.702;2023-10-31T08:58:56;24.45;;;17.35;;
43150;SDS011;28755;51.478;5.702;2023-10-31T09:01:22;23.60;;;16.27;;
43150;SDS011;28755;51.478;5.702;2023-10-31T09:03:48;20.00;;;15.40;;
43150;SDS011;28755;51.478;5.702;2023-10-31T09:06:14;19.25;;;14.90;;
43150;SDS011;28755;51.478;5.702;2023-10-31T09:08:40;21.13;;;15.07;;
43150;SDS011;28755;51.478;5.702;2023-10-31T09:11:05;24.92;;;14.85;;
43150;SDS011;28755;51.478;5.702;2023-10-31T09:13:31;19.23;;;14.10;;
43150;SDS011;28755;51.478;5.702;2023-10-31T09:15:58;23.70;;;13.98;;
43150;SDS011;28755;51.478;5.702;2023-10-31T09:18:24;18.73;;;13.60;;
43150;SDS011;28755;51.478;5.702;2023-10-31T09:20:50;15.90;;;12.35;;
43150;SDS011;28755;51.478;5.702;2023-10-31T09:23:15;19.75;;;13.10;;
43150;SDS011;28755;51.478;5.702;2023-10-31T09:25:42;20.30;;;13.38;;
43150;SDS011;28755;51.478;5.702;2023-10-31T09:28:08;18.05;;;12.75;;
43150;SDS011;28755;51.478;5.702;2023-10-31T09:30:34;16.65;;;11.25;;
43150;SDS011;28755;51.478;5.702;2023-10-31T09:32:59;16.15;;;11.27;;
43150;SDS011;28755;51.478;5.702;2023-10-31T09:35:25;15.57;;;10.73;;
43150;SDS011;28755;51.478;5.702;2023-10-31T09:37:51;17.15;;;11.10;;
43150;SDS011;28755;51.478;5.702;2023-10-31T09:40:17;14.80;;;10.10;;
43150;SDS011;28755;51.478;5.702;2023-10-31T09:42:46;13.48;;;10.07;;
43150;SDS011;28755;51.478;5.702;2023-10-31T09:45:12;15.13;;;10.25;;
43150;SDS011;28755;51.478;5.702;2023-10-31T09:47:38;13.43;;;9.50;;
43150;SDS011;28755;51.478;5.702;2023-10-31T09:50:04;10.13;;;7.97;;
43150;SDS011;28755;51.478;5.702;2023-10-31T09:52:30;13.02;;;8.52;;
43150;SDS011;28755;51.478;5.702;2023-10-31T09:54:56;13.63;;;9.65;;
43150;SDS011;28755;51.478;5.702;2023-10-31T09:57:22;12.02;;;9.95;;
43150;SDS011;28755;51.478;5.702;2023-10-31T09:59:48;14.95;;;9.90;;
43150;SDS011;28755;51.478;5.702;2023-10-31T10:02:13;16.25;;;9.60;;
43150;SDS011;28755;51.478;5.702;2023-10-31T10:04:39;20.85;;;9.70;;
43150;SDS011;28755;51.478;5.702;2023-10-31T10:07:05;18.20;;;9.68;;
43150;SDS011;28755;51.478;5.702;2023-10-31T10:09:30;15.52;;;9.55;;
43150;SDS011;28755;51.478;5.702;2023-10-31T10:11:59;19.27;;;10.40;;
43150;SDS011;28755;51.478;5.702;2023-10-31T10:14:26;12.63;;;9.60;;
43150;SDS011;28755;51.478;5.702;2023-10-31T10:16:53;13.95;;;9.50;;
43150;SDS011;28755;51.478;5.702;2023-10-31T10:19:22;15.65;;;10.15;;
43150;SDS011;28755;51.478;5.702;2023-10-31T10:24:18;16.90;;;9.77;;
43150;SDS011;28755;51.478;5.702;2023-10-31T10:26:45;16.05;;;9.70;;
43150;SDS011;28755;51.478;5.702;2023-10-31T10:29:11;14.70;;;10.35;;
43150;SDS011;28755;51.478;5.702;2023-10-31T10:31:37;15.38;;;11.00;;
43150;SDS011;28755;51.478;5.702;2023-10-31T10:34:02;17.55;;;11.30;;
43150;SDS011;28755;51.478;5.702;2023-10-31T10:36:28;12.48;;;9.38;;
43150;SDS011;28755;51.478;5.702;2023-10-31T10:38:58;15.63;;;9.55;;
43150;SDS011;28755;51.478;5.702;2023-10-31T10:41:25;13.00;;;9.00;;
43150;SDS011;28755;51.478;5.702;2023-10-31T10:43:55;12.30;;;9.02;;
43150;SDS011;28755;51.478;5.702;2023-10-31T10:46:26;16.58;;;9.60;;
43150;SDS011;28755;51.478;5.702;2023-10-31T10:48:55;17.92;;;10.20;;
43150;SDS011;28755;51.478;5.702;2023-10-31T10:51:28;13.85;;;10.20;;
43150;SDS011;28755;51.478;5.702;2023-10-31T10:54:05;16.88;;;11.35;;
43150;SDS011;28755;51.478;5.702;2023-10-31T10:56:37;15.35;;;10.82;;
43150;SDS011;28755;51.478;5.702;2023-10-31T10:59:08;17.80;;;9.93;;
43150;SDS011;28755;51.478;5.702;2023-10-31T11:01:43;17.35;;;9.18;;
43150;SDS011;28755;51.478;5.702;2023-10-31T11:04:12;12.88;;;9.45;;
43150;SDS011;28755;51.478;5.702;2023-10-31T11:06:38;18.65;;;9.95;;
43150;SDS011;28755;51.478;5.702;2023-10-31T11:09:05;16.77;;;10.23;;
43150;SDS011;28755;51.478;5.702;2023-10-31T11:11:31;15.13;;;10.35;;
43150;SDS011;28755;51.478;5.702;2023-10-31T11:13:57;14.98;;;9.68;;
43150;SDS011;28755;51.478;5.702;2023-10-31T11:16:29;17.30;;;10.05;;
43150;SDS011;28755;51.478;5.702;2023-10-31T11:19:00;13.32;;;9.27;;
43150;SDS011;28755;51.478;5.702;2023-10-31T11:21:28;12.23;;;9.73;;
43150;SDS011;28755;51.478;5.702;2023-10-31T11:23:58;12.57;;;9.55;;
43150;SDS011;28755;51.478;5.702;2023-10-31T11:26:29;13.88;;;9.45;;
43150;SDS011;28755;51.478;5.702;2023-10-31T11:29:05;12.65;;;9.52;;
43150;SDS011;28755;51.478;5.702;2023-10-31T11:31:31;13.88;;;9.25;;
43150;SDS011;28755;51.478;5.702;2023-10-31T11:34:00;12.57;;;8.93;;
43150;SDS011;28755;51.478;5.702;2023-10-31T11:36:29;16.73;;;9.40;;
43150;SDS011;28755;51.478;5.702;2023-10-31T11:39:09;13.88;;;8.70;;
43150;SDS011;28755;51.478;5.702;2023-10-31T11:41:37;12.05;;;8.48;;
43150;SDS011;28755;51.478;5.702;2023-10-31T11:44:02;11.00;;;7.38;;
43150;SDS011;28755;51.478;5.702;2023-10-31T11:46:29;11.13;;;8.02;;
43150;SDS011;28755;51.478;5.702;2023-10-31T11:48:55;11.45;;;7.30;;
43150;SDS011;28755;51.478;5.702;2023-10-31T11:51:21;13.75;;;7.10;;
43150;SDS011;28755;51.478;5.702;2023-10-31T11:53:48;9.27;;;6.53;;
43150;SDS011;28755;51.478;5.702;2023-10-31T11:56:14;10.43;;;6.53;;
43150;SDS011;28755;51.478;5.702;2023-10-31T11:58:40;13.60;;;6.38;;
43150;SDS011;28755;51.478;5.702;2023-10-31T12:01:07;10.40;;;6.28;;
43150;SDS011;28755;51.478;5.702;2023-10-31T12:03:37;8.90;;;5.80;;
43150;SDS011;28755;51.478;5.702;2023-10-31T12:06:04;9.90;;;6.22;;
43150;SDS011;28755;51.478;5.702;2023-10-31T12:08:32;10.63;;;6.30;;
43150;SDS011;28755;51.478;5.702;2023-10-31T12:16:24;6.07;;;3.90;;
43150;SDS011;28755;51.478;5.702;2023-10-31T12:18:55;9.00;;;4.47;;
43150;SDS011;28755;51.478;5.702;2023-10-31T12:21:38;7.55;;;3.55;;
43150;SDS011;28755;51.478;5.702;2023-10-31T12:24:07;6.20;;;2.70;;
43150;SDS011;28755;51.478;5.702;2023-10-31T12:26:37;4.85;;;2.40;;
43150;SDS011;28755;51.478;5.702;2023-10-31T12:29:10;6.65;;;2.40;;
43150;SDS011;28755;51.478;5.702;2023-10-31T12:31:43;4.75;;;2.22;;
43150;SDS011;28755;51.478;5.702;2023-10-31T12:34:13;4.80;;;2.35;;
43150;SDS011;28755;51.478;5.702;2023-10-31T12:36:40;7.57;;;2.67;;
43150;SDS011;28755;51.478;5.702;2023-10-31T12:39:07;7.20;;;2.60;;
43150;SDS011;28755;51.478;5.702;2023-10-31T12:41:35;6.60;;;2.08;;
43150;SDS011;28755;51.478;5.702;2023-10-31T12:44:02;6.40;;;1.90;;
43150;SDS011;28755;51.478;5.702;2023-10-31T12:46:29;8.07;;;1.70;;
43150;SDS011;28755;51.478;5.702;2023-10-31T12:48:57;2.63;;;1.50;;
43150;SDS011;28755;51.478;5.702;2023-10-31T12:51:23;4.22;;;1.60;;
43150;SDS011;28755;51.478;5.702;2023-10-31T12:53:49;4.25;;;1.48;;
43150;SDS011;28755;51.478;5.702;2023-10-31T12:56:34;2.97;;;1.58;;
43150;SDS011;28755;51.478;5.702;2023-10-31T12:59:09;3.65;;;1.10;;
43150;SDS011;28755;51.478;5.702;2023-10-31T13:01:41;5.20;;;1.38;;
43150;SDS011;28755;51.478;5.702;2023-10-31T13:04:08;5.43;;;1.60;;
43150;SDS011;28755;51.478;5.702;2023-10-31T13:06:34;5.38;;;1.67;;
43150;SDS011;28755;51.478;5.702;2023-10-31T13:09:00;4.80;;;1.48;;
43150;SDS011;28755;51.478;5.702;2023-10-31T13:11:30;6.80;;;1.90;;
43150;SDS011;28755;51.478;5.702;2023-10-31T13:13:55;6.82;;;1.65;;
43150;SDS011;28755;51.478;5.702;2023-10-31T13:16:21;6.38;;;1.95;;
43150;SDS011;28755;51.478;5.702;2023-10-31T13:18:47;5.97;;;1.65;;
43150;SDS011;28755;51.478;5.702;2023-10-31T13:21:14;7.18;;;2.03;;
43150;SDS011;28755;51.478;5.702;2023-10-31T13:23:41;5.05;;;1.90;;
43150;SDS011;28755;51.478;5.702;2023-10-31T13:26:10;5.53;;;1.98;;
43150;SDS011;28755;51.478;5.702;2023-10-31T13:28:39;5.60;;;1.80;;
43150;SDS011;28755;51.478;5.702;2023-10-31T13:31:05;5.88;;;2.38;;
43150;SDS011;28755;51.478;5.702;2023-10-31T13:33:32;5.68;;;2.33;;
43150;SDS011;28755;51.478;5.702;2023-10-31T13:35:58;6.00;;;2.10;;
43150;SDS011;28755;51.478;5.702;2023-10-31T13:38:23;7.25;;;2.60;;
43150;SDS011;28755;51.478;5.702;2023-10-31T13:40:49;6.47;;;2.30;;
43150;SDS011;28755;51.478;5.702;2023-10-31T13:43:15;6.45;;;2.10;;
43150;SDS011;28755;51.478;5.702;2023-10-31T13:45:40;5.18;;;1.80;;
43150;SDS011;28755;51.478;5.702;2023-10-31T13:48:06;6.55;;;1.95;;
43150;SDS011;28755;51.478;5.702;2023-10-31T13:50:32;5.88;;;1.30;;
43150;SDS011;28755;51.478;5.702;2023-10-31T13:52:58;5.30;;;1.27;;
43150;SDS011;28755;51.478;5.702;2023-10-31T13:55:24;4.32;;;1.30;;
43150;SDS011;28755;51.478;5.702;2023-10-31T13:57:50;10.05;;;2.28;;
43150;SDS011;28755;51.478;5.702;2023-10-31T14:00:16;5.95;;;1.75;;
43150;SDS011;28755;51.478;5.702;2023-10-31T14:02:41;7.60;;;1.60;;
43150;SDS011;28755;51.478;5.702;2023-10-31T14:05:07;4.93;;;1.45;;
43150;SDS011;28755;51.478;5.702;2023-10-31T14:07:33;7.72;;;1.60;;
43150;SDS011;28755;51.478;5.702;2023-10-31T14:10:00;6.70;;;1.80;;
43150;SDS011;28755;51.478;5.702;2023-10-31T14:12:26;6.93;;;1.92;;
43150;SDS011;28755;51.478;5.702;2023-10-31T14:14:53;4.93;;;1.75;;
43150;SDS011;28755;51.478;5.702;2023-10-31T14:17:18;7.15;;;1.90;;
43150;SDS011;28755;51.478;5.702;2023-10-31T14:19:44;5.93;;;1.63;;
43150;SDS011;28755;51.478;5.702;2023-10-31T14:22:11;4.95;;;1.60;;
43150;SDS011;28755;51.478;5.702;2023-10-31T14:24:37;5.15;;;1.52;;
43150;SDS011;28755;51.478;5.702;2023-10-31T14:27:03;8.77;;;1.90;;
43150;SDS011;28755;51.478;5.702;2023-10-31T14:29:28;6.13;;;1.80;;
43150;SDS011;28755;51.478;5.702;2023-10-31T14:31:54;7.75;;;1.80;;
43150;SDS011;28755;51.478;5.702;2023-10-31T14:34:20;8.63;;;2.25;;